sensor_id;sensor_type;location;lat;lon;timestamp;pressure;altitude;pressure_sealevel;temperature;humidity
80620;BME280;69979;53.682;-2.690;2024-01-25T00:00:27;102357.03;;;6.26;58.44
80620;BME280;69979;53.682;-2.690;2024-01-25T00:02:53;102356.17;;;6.85;57.16
80620;BME280;69979;53.682;-2.690;2024-01-25T00:05:19;102354.22;;;6.40;57.74
80620;BME280;69979;53.682;-2.690;2024-01-25T00:07:46;102349.10;;;5.84;59.61
80620;BME280;69979;53.682;-2.690;2024-01-25T00:10:10;102349.71;;;5.68;60.53
80620;BME280;69979;53.682;-2.690;2024-01-25T00:12:35;102345.50;;;5.04;61.72
80620;BME280;69979;53.682;-2.690;2024-01-25T00:15:01;102348.79;;;5.64;60.80
80620;BME280;69979;53.682;-2.690;2024-01-25T00:17:26;102350.56;;;6.12;60.34
80620;BME280;69979;53.682;-2.690;2024-01-25T00:19:52;102350.87;;;5.78;60.58
80620;BME280;69979;53.682;-2.690;2024-01-25T00:22:17;102355.98;;;6.78;58.65
80620;BME280;69979;53.682;-2.690;2024-01-25T00:24:42;102357.40;;;7.55;56.75
80620;BME280;69979;53.682;-2.690;2024-01-25T00:27:09;102348.21;;;7.97;55.08
80620;BME280;69979;53.682;-2.690;2024-01-25T00:29:34;102346.33;;;8.39;54.25
80620;BME280;69979;53.682;-2.690;2024-01-25T00:31:58;102348.77;;;6.59;56.17
80620;BME280;69979;53.682;-2.690;2024-01-25T00:34:25;102340.18;;;6.37;58.59
80620;BME280;69979;53.682;-2.690;2024-01-25T00:36:50;102335.53;;;5.51;61.07
80620;BME280;69979;53.682;-2.690;2024-01-25T00:39:16;102334.15;;;6.06;60.31
80620;BME280;69979;53.682;-2.690;2024-01-25T00:41:42;102334.87;;;4.63;63.71
80620;BME280;69979;53.682;-2.690;2024-01-25T00:44:07;102333.93;;;5.07;63.72
80620;BME280;69979;53.682;-2.690;2024-01-25T00:46:32;102333.06;;;5.28;63.33
80620;BME280;69979;53.682;-2.690;2024-01-25T00:48:58;102327.19;;;6.29;60.38
80620;BME280;69979;53.682;-2.690;2024-01-25T00:51:24;102322.02;;;6.28;60.36
80620;BME280;69979;53.682;-2.690;2024-01-25T00:53:49;102314.45;;;5.44;61.99
80620;BME280;69979;53.682;-2.690;2024-01-25T00:56:15;102307.24;;;5.04;63.51
80620;BME280;69979;53.682;-2.690;2024-01-25T00:58:40;102301.02;;;5.18;63.74
80620;BME280;69979;53.682;-2.690;2024-01-25T01:01:06;102302.68;;;4.57;65.71
80620;BME280;69979;53.682;-2.690;2024-01-25T01:03:31;102302.53;;;5.43;63.86
80620;BME280;69979;53.682;-2.690;2024-01-25T01:05:56;102298.77;;;4.72;65.74
80620;BME280;69979;53.682;-2.690;2024-01-25T01:08:22;102302.30;;;4.81;65.43
80620;BME280;69979;53.682;-2.690;2024-01-25T01:10:47;102312.61;;;4.73;65.80
80620;BME280;69979;53.682;-2.690;2024-01-25T01:13:13;102312.67;;;5.10;65.90
80620;BME280;69979;53.682;-2.690;2024-01-25T01:15:38;102314.81;;;5.62;63.87
80620;BME280;69979;53.682;-2.690;2024-01-25T01:18:04;102306.03;;;5.76;62.93
80620;BME280;69979;53.682;-2.690;2024-01-25T01:20:29;102295.64;;;4.59;67.56
80620;BME280;69979;53.682;-2.690;2024-01-25T01:22:54;102290.55;;;4.37;66.51
80620;BME280;69979;53.682;-2.690;2024-01-25T01:25:20;102279.93;;;4.75;66.92
80620;BME280;69979;53.682;-2.690;2024-01-25T01:27:45;102277.85;;;4.76;66.10
80620;BME280;69979;53.682;-2.690;2024-01-25T01:30:11;102280.68;;;5.03;65.63
80620;BME280;69979;53.682;-2.690;2024-01-25T01:32:36;102283.82;;;4.62;67.98
80620;BME280;69979;53.682;-2.690;2024-01-25T01:35:02;102283.06;;;3.61;70.23
80620;BME280;69979;53.682;-2.690;2024-01-25T01:37:27;102275.91;;;4.08;70.99
80620;BME280;69979;53.682;-2.690;2024-01-25T01:39:53;102261.34;;;3.35;72.78
80620;BME280;69979;53.682;-2.690;2024-01-25T01:42:18;102260.90;;;2.84;74.81
80620;BME280;69979;53.682;-2.690;2024-01-25T01:44:44;102261.02;;;3.56;73.52
80620;BME280;69979;53.682;-2.690;2024-01-25T01:47:09;102257.11;;;3.81;72.72
80620;BME280;69979;53.682;-2.690;2024-01-25T01:49:34;102256.17;;;3.80;71.97
80620;BME280;69979;53.682;-2.690;2024-01-25T01:52:00;102256.06;;;4.48;70.43
80620;BME280;69979;53.682;-2.690;2024-01-25T01:54:25;102264.84;;;4.61;69.72
80620;BME280;69979;53.682;-2.690;2024-01-25T01:56:51;102268.04;;;3.96;70.97
80620;BME280;69979;53.682;-2.690;2024-01-25T01:59:17;102270.64;;;3.98;71.07
80620;BME280;69979;53.682;-2.690;2024-01-25T02:01:42;102263.79;;;3.99;70.63
80620;BME280;69979;53.682;-2.690;2024-01-25T02:04:08;102260.33;;;3.86;71.45
80620;BME280;69979;53.682;-2.690;2024-01-25T02:06:33;102264.76;;;3.91;71.06
80620;BME280;69979;53.682;-2.690;2024-01-25T02:09:00;102259.37;;;3.87;71.66
80620;BME280;69979;53.682;-2.690;2024-01-25T02:11:24;102250.03;;;4.14;70.55
80620;BME280;69979;53.682;-2.690;2024-01-25T02:13:50;102249.47;;;4.01;70.70
80620;BME280;69979;53.682;-2.690;2024-01-25T02:16:16;102240.44;;;3.97;70.79
80620;BME280;69979;53.682;-2.690;2024-01-25T02:18:41;102237.03;;;4.18;69.97
80620;BME280;69979;53.682;-2.690;2024-01-25T02:21:06;102237.70;;;4.22;70.72
80620;BME280;69979;53.682;-2.690;2024-01-25T02:23:32;102242.60;;;3.73;72.11
80620;BME280;69979;53.682;-2.690;2024-01-25T02:25:57;102251.13;;;3.01;74.71
80620;BME280;69979;53.682;-2.690;2024-01-25T02:28:22;102249.27;;;3.36;73.52
80620;BME280;69979;53.682;-2.690;2024-01-25T02:30:48;102245.01;;;3.65;72.64
80620;BME280;69979;53.682;-2.690;2024-01-25T02:33:14;102234.87;;;3.97;71.81
80620;BME280;69979;53.682;-2.690;2024-01-25T02:35:40;102223.31;;;3.82;71.39
80620;BME280;69979;53.682;-2.690;2024-01-25T02:38:05;102212.02;;;3.98;71.43
80620;BME280;69979;53.682;-2.690;2024-01-25T02:40:31;102206.30;;;3.98;70.93
80620;BME280;69979;53.682;-2.690;2024-01-25T02:42:56;102199.14;;;4.27;70.02
80620;BME280;69979;53.682;-2.690;2024-01-25T02:45:22;102195.58;;;3.73;71.67
80620;BME280;69979;53.682;-2.690;2024-01-25T02:47:47;102192.25;;;4.55;69.42
80620;BME280;69979;53.682;-2.690;2024-01-25T02:50:13;102188.20;;;4.36;70.21
80620;BME280;69979;53.682;-2.690;2024-01-25T02:52:39;102182.76;;;4.36;70.89
80620;BME280;69979;53.682;-2.690;2024-01-25T02:55:05;102184.56;;;5.30;68.53
80620;BME280;69979;53.682;-2.690;2024-01-25T02:57:31;102180.68;;;4.69;69.54
80620;BME280;69979;53.682;-2.690;2024-01-25T02:59:56;102172.00;;;4.98;69.19
80620;BME280;69979;53.682;-2.690;2024-01-25T03:02:21;102161.67;;;5.16;67.69
80620;BME280;69979;53.682;-2.690;2024-01-25T03:04:47;102154.38;;;6.02;65.41
80620;BME280;69979;53.682;-2.690;2024-01-25T03:07:13;102155.81;;;5.51;67.23
80620;BME280;69979;53.682;-2.690;2024-01-25T03:09:38;102152.08;;;5.06;67.92
80620;BME280;69979;53.682;-2.690;2024-01-25T03:12:05;102145.23;;;5.30;67.42
80620;BME280;69979;53.682;-2.690;2024-01-25T03:14:36;102139.98;;;5.04;67.44
80620;BME280;69979;53.682;-2.690;2024-01-25T03:16:55;102132.08;;;5.63;68.26
80620;BME280;69979;53.682;-2.690;2024-01-25T03:19:24;102125.93;;;4.33;69.33
80620;BME280;69979;53.682;-2.690;2024-01-25T03:21:46;102125.59;;;4.42;70.66
80620;BME280;69979;53.682;-2.690;2024-01-25T03:24:12;102126.16;;;4.16;71.86
80620;BME280;69979;53.682;-2.690;2024-01-25T03:26:37;102119.51;;;3.92;72.57
80620;BME280;69979;53.682;-2.690;2024-01-25T03:29:03;102117.76;;;4.30;71.62
80620;BME280;69979;53.682;-2.690;2024-01-25T03:31:29;102119.87;;;3.64;73.34
80620;BME280;69979;53.682;-2.690;2024-01-25T03:33:54;102115.93;;;3.91;73.09
80620;BME280;69979;53.682;-2.690;2024-01-25T03:36:20;102114.20;;;4.05;72.36
80620;BME280;69979;53.682;-2.690;2024-01-25T03:38:45;102113.82;;;3.40;74.78
80620;BME280;69979;53.682;-2.690;2024-01-25T03:41:11;102101.23;;;3.58;73.70
80620;BME280;69979;53.682;-2.690;2024-01-25T03:43:36;102095.34;;;3.91;73.57
80620;BME280;69979;53.682;-2.690;2024-01-25T03:46:01;102088.35;;;3.78;73.74
80620;BME280;69979;53.682;-2.690;2024-01-25T03:48:27;102080.58;;;3.66;74.58
80620;BME280;69979;53.682;-2.690;2024-01-25T03:50:53;102083.32;;;3.63;74.91
80620;BME280;69979;53.682;-2.690;2024-01-25T03:53:19;102090.19;;;3.91;74.64
80620;BME280;69979;53.682;-2.690;2024-01-25T03:55:44;102085.24;;;3.95;74.09
80620;BME280;69979;53.682;-2.690;2024-01-25T03:58:10;102079.15;;;3.63;75.25
80620;BME280;69979;53.682;-2.690;2024-01-25T04:00:35;102074.35;;;3.93;74.49
80620;BME280;69979;53.682;-2.690;2024-01-25T04:03:00;102066.65;;;3.00;76.91
80620;BME280;69979;53.682;-2.690;2024-01-25T04:05:26;102059.90;;;3.45;75.86
80620;BME280;69979;53.682;-2.690;2024-01-25T04:07:52;102063.19;;;4.08;74.27
80620;BME280;69979;53.682;-2.690;2024-01-25T04:10:17;102065.71;;;3.81;75.34
80620;BME280;69979;53.682;-2.690;2024-01-25T04:12:43;102059.17;;;4.31;74.20
80620;BME280;69979;53.682;-2.690;2024-01-25T04:15:09;102043.52;;;3.84;74.34
80620;BME280;69979;53.682;-2.690;2024-01-25T04:17:34;102033.98;;;3.53;74.71
80620;BME280;69979;53.682;-2.690;2024-01-25T04:20:00;102030.45;;;3.80;75.17
80620;BME280;69979;53.682;-2.690;2024-01-25T04:22:25;102034.17;;;4.09;74.29
80620;BME280;69979;53.682;-2.690;2024-01-25T04:24:51;102030.72;;;4.85;71.67
80620;BME280;69979;53.682;-2.690;2024-01-25T04:27:16;102019.06;;;5.04;71.07
80620;BME280;69979;53.682;-2.690;2024-01-25T04:29:42;102018.08;;;4.48;72.59
80620;BME280;69979;53.682;-2.690;2024-01-25T04:32:07;102019.92;;;4.11;74.19
80620;BME280;69979;53.682;-2.690;2024-01-25T04:34:32;102022.94;;;3.88;73.83
80620;BME280;69979;53.682;-2.690;2024-01-25T04:36:58;102023.17;;;4.30;73.60
80620;BME280;69979;53.682;-2.690;2024-01-25T04:39:23;102022.93;;;4.74;71.94
80620;BME280;69979;53.682;-2.690;2024-01-25T04:41:48;102022.48;;;4.57;71.81
80620;BME280;69979;53.682;-2.690;2024-01-25T04:44:15;102019.13;;;4.80;72.02
80620;BME280;69979;53.682;-2.690;2024-01-25T04:46:40;102018.04;;;4.93;72.15
80620;BME280;69979;53.682;-2.690;2024-01-25T04:49:05;102017.80;;;5.01;71.56
80620;BME280;69979;53.682;-2.690;2024-01-25T04:51:30;102016.47;;;4.41;72.68
80620;BME280;69979;53.682;-2.690;2024-01-25T04:53:56;102005.91;;;4.67;72.60
80620;BME280;69979;53.682;-2.690;2024-01-25T04:56:22;102007.10;;;4.12;73.61
80620;BME280;69979;53.682;-2.690;2024-01-25T04:58:48;102003.51;;;4.75;72.14
80620;BME280;69979;53.682;-2.690;2024-01-25T05:01:13;102001.67;;;4.70;72.26
80620;BME280;69979;53.682;-2.690;2024-01-25T05:03:38;101995.88;;;4.75;72.06
80620;BME280;69979;53.682;-2.690;2024-01-25T05:06:04;101993.45;;;4.61;72.50
80620;BME280;69979;53.682;-2.690;2024-01-25T05:08:30;101993.11;;;4.52;71.71
80620;BME280;69979;53.682;-2.690;2024-01-25T05:10:55;101994.05;;;3.72;75.25
80620;BME280;69979;53.682;-2.690;2024-01-25T05:13:20;101989.97;;;5.05;71.89
80620;BME280;69979;53.682;-2.690;2024-01-25T05:15:46;101996.68;;;4.74;72.54
80620;BME280;69979;53.682;-2.690;2024-01-25T05:18:12;101984.71;;;5.66;70.23
80620;BME280;69979;53.682;-2.690;2024-01-25T05:20:38;101975.12;;;5.50;69.52
80620;BME280;69979;53.682;-2.690;2024-01-25T05:23:04;101971.01;;;4.62;72.26
80620;BME280;69979;53.682;-2.690;2024-01-25T05:25:29;101967.05;;;4.75;71.93
80620;BME280;69979;53.682;-2.690;2024-01-25T05:27:55;101972.96;;;3.75;75.20
80620;BME280;69979;53.682;-2.690;2024-01-25T05:30:21;101973.75;;;3.45;76.99
80620;BME280;69979;53.682;-2.690;2024-01-25T05:32:46;101974.05;;;4.14;76.20
80620;BME280;69979;53.682;-2.690;2024-01-25T05:35:11;101979.73;;;4.25;75.82
80620;BME280;69979;53.682;-2.690;2024-01-25T05:37:37;101978.64;;;4.17;75.05
80620;BME280;69979;53.682;-2.690;2024-01-25T05:40:03;101977.20;;;3.91;76.40
80620;BME280;69979;53.682;-2.690;2024-01-25T05:42:28;101975.95;;;3.79;77.52
80620;BME280;69979;53.682;-2.690;2024-01-25T05:44:54;101972.00;;;3.90;77.58
80620;BME280;69979;53.682;-2.690;2024-01-25T05:47:20;101963.79;;;3.91;77.81
80620;BME280;69979;53.682;-2.690;2024-01-25T05:49:45;101961.34;;;3.64;78.50
80620;BME280;69979;53.682;-2.690;2024-01-25T05:52:11;101950.41;;;3.67;77.90
80620;BME280;69979;53.682;-2.690;2024-01-25T05:54:36;101936.67;;;3.85;78.12
80620;BME280;69979;53.682;-2.690;2024-01-25T05:57:03;101926.13;;;3.90;77.55
80620;BME280;69979;53.682;-2.690;2024-01-25T05:59:28;101911.56;;;3.70;78.12
80620;BME280;69979;53.682;-2.690;2024-01-25T06:01:54;101906.94;;;3.36;79.91
80620;BME280;69979;53.682;-2.690;2024-01-25T06:04:20;101911.91;;;3.22;80.08
80620;BME280;69979;53.682;-2.690;2024-01-25T06:06:45;101910.02;;;3.25;80.07
80620;BME280;69979;53.682;-2.690;2024-01-25T06:09:11;101910.37;;;3.50;77.89
80620;BME280;69979;53.682;-2.690;2024-01-25T06:11:36;101909.48;;;3.28;80.50
80620;BME280;69979;53.682;-2.690;2024-01-25T06:14:02;101910.69;;;3.11;81.09
80620;BME280;69979;53.682;-2.690;2024-01-25T06:16:28;101909.59;;;3.29;81.61
80620;BME280;69979;53.682;-2.690;2024-01-25T06:18:53;101908.84;;;3.26;81.51
80620;BME280;69979;53.682;-2.690;2024-01-25T06:21:19;101891.85;;;3.36;81.89
80620;BME280;69979;53.682;-2.690;2024-01-25T06:23:44;101886.85;;;3.49;82.02
80620;BME280;69979;53.682;-2.690;2024-01-25T06:26:10;101885.84;;;4.04;79.77
80620;BME280;69979;53.682;-2.690;2024-01-25T06:28:35;101882.78;;;3.14;82.59
80620;BME280;69979;53.682;-2.690;2024-01-25T06:31:01;101876.20;;;3.91;80.95
80620;BME280;69979;53.682;-2.690;2024-01-25T06:33:25;101866.68;;;3.33;81.81
80620;BME280;69979;53.682;-2.690;2024-01-25T06:35:51;101861.71;;;3.33;83.73
80620;BME280;69979;53.682;-2.690;2024-01-25T06:38:17;101853.63;;;3.37;84.36
80620;BME280;69979;53.682;-2.690;2024-01-25T06:40:42;101851.23;;;3.27;85.37
80620;BME280;69979;53.682;-2.690;2024-01-25T06:43:07;101844.92;;;4.12;83.07
80620;BME280;69979;53.682;-2.690;2024-01-25T06:45:33;101839.35;;;3.29;85.77
80620;BME280;69979;53.682;-2.690;2024-01-25T06:47:59;101829.71;;;2.92;87.09
80620;BME280;69979;53.682;-2.690;2024-01-25T06:50:24;101831.41;;;2.83;88.35
80620;BME280;69979;53.682;-2.690;2024-01-25T06:52:50;101835.62;;;3.58;86.18
80620;BME280;69979;53.682;-2.690;2024-01-25T06:55:15;101825.95;;;3.64;86.05
80620;BME280;69979;53.682;-2.690;2024-01-25T06:57:41;101821.17;;;4.11;83.68
80620;BME280;69979;53.682;-2.690;2024-01-25T07:00:08;101826.67;;;3.86;85.21
80620;BME280;69979;53.682;-2.690;2024-01-25T07:02:32;101825.70;;;3.49;85.38
80620;BME280;69979;53.682;-2.690;2024-01-25T07:04:58;101825.22;;;3.10;87.52
80620;BME280;69979;53.682;-2.690;2024-01-25T07:07:23;101826.44;;;3.13;88.62
80620;BME280;69979;53.682;-2.690;2024-01-25T07:09:49;101825.73;;;3.64;87.60
80620;BME280;69979;53.682;-2.690;2024-01-25T07:12:14;101826.40;;;3.39;88.06
80620;BME280;69979;53.682;-2.690;2024-01-25T07:14:40;101826.48;;;3.49;88.28
80620;BME280;69979;53.682;-2.690;2024-01-25T07:17:06;101830.59;;;2.99;90.40
80620;BME280;69979;53.682;-2.690;2024-01-25T07:19:31;101828.81;;;3.69;89.03
80620;BME280;69979;53.682;-2.690;2024-01-25T07:21:57;101828.48;;;3.43;88.65
80620;BME280;69979;53.682;-2.690;2024-01-25T07:24:23;101818.54;;;4.10;86.68
80620;BME280;69979;53.682;-2.690;2024-01-25T07:26:48;101815.96;;;3.81;87.32
80620;BME280;69979;53.682;-2.690;2024-01-25T07:29:14;101813.85;;;4.29;86.12
80620;BME280;69979;53.682;-2.690;2024-01-25T07:31:39;101811.63;;;4.79;84.34
80620;BME280;69979;53.682;-2.690;2024-01-25T07:34:04;101808.92;;;4.59;84.09
80620;BME280;69979;53.682;-2.690;2024-01-25T07:36:30;101800.43;;;4.66;84.26
80620;BME280;69979;53.682;-2.690;2024-01-25T07:38:55;101794.12;;;5.30;82.36
80620;BME280;69979;53.682;-2.690;2024-01-25T07:41:21;101786.01;;;4.63;83.89
80620;BME280;69979;53.682;-2.690;2024-01-25T07:43:46;101787.87;;;4.30;85.43
80620;BME280;69979;53.682;-2.690;2024-01-25T07:46:11;101767.45;;;3.90;87.29
80620;BME280;69979;53.682;-2.690;2024-01-25T07:48:37;101761.61;;;4.20;86.85
80620;BME280;69979;53.682;-2.690;2024-01-25T07:51:02;101756.44;;;3.73;88.00
80620;BME280;69979;53.682;-2.690;2024-01-25T07:53:27;101753.62;;;3.95;87.96
80620;BME280;69979;53.682;-2.690;2024-01-25T07:55:52;101752.49;;;3.57;90.65
80620;BME280;69979;53.682;-2.690;2024-01-25T07:58:19;101740.94;;;3.74;89.04
80620;BME280;69979;53.682;-2.690;2024-01-25T08:00:44;101746.41;;;3.77;89.87
80620;BME280;69979;53.682;-2.690;2024-01-25T08:03:09;101731.82;;;3.51;89.64
80620;BME280;69979;53.682;-2.690;2024-01-25T08:05:34;101730.91;;;3.45;90.38
80620;BME280;69979;53.682;-2.690;2024-01-25T08:08:00;101737.75;;;3.84;90.07
80620;BME280;69979;53.682;-2.690;2024-01-25T08:10:25;101737.73;;;4.02;89.67
80620;BME280;69979;53.682;-2.690;2024-01-25T08:12:50;101731.59;;;3.82;89.80
80620;BME280;69979;53.682;-2.690;2024-01-25T08:15:16;101733.52;;;3.57;89.99
80620;BME280;69979;53.682;-2.690;2024-01-25T08:17:41;101738.30;;;4.20;87.83
80620;BME280;69979;53.682;-2.690;2024-01-25T08:20:07;101740.52;;;3.92;89.43
80620;BME280;69979;53.682;-2.690;2024-01-25T08:22:32;101749.23;;;3.50;89.34
80620;BME280;69979;53.682;-2.690;2024-01-25T08:24:57;101738.20;;;3.65;89.68
80620;BME280;69979;53.682;-2.690;2024-01-25T08:27:24;101738.95;;;4.06;88.48
80620;BME280;69979;53.682;-2.690;2024-01-25T08:29:48;101732.61;;;4.87;87.32
80620;BME280;69979;53.682;-2.690;2024-01-25T08:32:14;101727.90;;;4.03;88.86
80620;BME280;69979;53.682;-2.690;2024-01-25T08:34:39;101723.72;;;4.17;88.88
80620;BME280;69979;53.682;-2.690;2024-01-25T08:37:05;101721.22;;;4.24;87.89
80620;BME280;69979;53.682;-2.690;2024-01-25T08:39:30;101721.50;;;4.15;88.03
80620;BME280;69979;53.682;-2.690;2024-01-25T08:41:56;101719.91;;;4.31;87.75
80620;BME280;69979;53.682;-2.690;2024-01-25T08:44:22;101717.06;;;4.88;85.52
80620;BME280;69979;53.682;-2.690;2024-01-25T08:46:47;101714.48;;;4.23;87.20
80620;BME280;69979;53.682;-2.690;2024-01-25T08:49:12;101708.45;;;4.07;88.52
80620;BME280;69979;53.682;-2.690;2024-01-25T08:51:37;101707.85;;;4.99;85.58
80620;BME280;69979;53.682;-2.690;2024-01-25T08:54:03;101704.66;;;4.13;87.56
80620;BME280;69979;53.682;-2.690;2024-01-25T08:56:29;101708.69;;;4.40;87.82
80620;BME280;69979;53.682;-2.690;2024-01-25T08:58:54;101703.91;;;4.95;86.45
80620;BME280;69979;53.682;-2.690;2024-01-25T09:01:20;101713.17;;;4.97;85.20
80620;BME280;69979;53.682;-2.690;2024-01-25T09:03:45;101708.55;;;4.71;84.83
80620;BME280;69979;53.682;-2.690;2024-01-25T09:06:10;101713.68;;;4.21;87.59
80620;BME280;69979;53.682;-2.690;2024-01-25T09:08:36;101706.82;;;4.59;86.97
80620;BME280;69979;53.682;-2.690;2024-01-25T09:11:01;101706.67;;;4.73;86.76
80620;BME280;69979;53.682;-2.690;2024-01-25T09:13:27;101705.52;;;4.53;86.71
80620;BME280;69979;53.682;-2.690;2024-01-25T09:15:53;101706.06;;;4.60;88.62
80620;BME280;69979;53.682;-2.690;2024-01-25T09:18:19;101702.85;;;4.05;89.39
80620;BME280;69979;53.682;-2.690;2024-01-25T09:20:44;101697.81;;;4.10;90.07
80620;BME280;69979;53.682;-2.690;2024-01-25T09:23:10;101696.48;;;3.98;90.57
80620;BME280;69979;53.682;-2.690;2024-01-25T09:25:35;101692.77;;;3.94;90.38
80620;BME280;69979;53.682;-2.690;2024-01-25T09:28:01;101689.88;;;3.73;91.45
80620;BME280;69979;53.682;-2.690;2024-01-25T09:30:26;101699.65;;;4.51;90.09
80620;BME280;69979;53.682;-2.690;2024-01-25T09:32:52;101684.62;;;5.02;88.05
80620;BME280;69979;53.682;-2.690;2024-01-25T09:35:17;101678.67;;;5.11;86.84
80620;BME280;69979;53.682;-2.690;2024-01-25T09:37:42;101678.34;;;5.29;85.93
80620;BME280;69979;53.682;-2.690;2024-01-25T09:40:09;101681.51;;;4.97;86.42
80620;BME280;69979;53.682;-2.690;2024-01-25T09:42:34;101676.03;;;5.23;86.27
80620;BME280;69979;53.682;-2.690;2024-01-25T09:44:59;101668.75;;;5.20;86.99
80620;BME280;69979;53.682;-2.690;2024-01-25T09:47:24;101670.97;;;5.37;85.36
80620;BME280;69979;53.682;-2.690;2024-01-25T09:49:50;101656.45;;;4.58;89.76
80620;BME280;69979;53.682;-2.690;2024-01-25T09:52:16;101644.70;;;3.81;91.25
80620;BME280;69979;53.682;-2.690;2024-01-25T09:54:40;101641.43;;;4.14;92.27
80620;BME280;69979;53.682;-2.690;2024-01-25T09:57:12;101636.45;;;4.23;91.29
80620;BME280;69979;53.682;-2.690;2024-01-25T09:59:31;101640.31;;;4.36;90.47
80620;BME280;69979;53.682;-2.690;2024-01-25T10:01:57;101638.19;;;4.71;89.89
80620;BME280;69979;53.682;-2.690;2024-01-25T10:04:22;101637.26;;;4.85;89.08
80620;BME280;69979;53.682;-2.690;2024-01-25T10:06:48;101643.17;;;4.67;89.40
80620;BME280;69979;53.682;-2.690;2024-01-25T10:09:13;101644.28;;;5.04;88.60
80620;BME280;69979;53.682;-2.690;2024-01-25T10:11:38;101647.72;;;4.71;90.46
80620;BME280;69979;53.682;-2.690;2024-01-25T10:14:04;101638.07;;;4.80;89.48
80620;BME280;69979;53.682;-2.690;2024-01-25T10:16:29;101635.28;;;5.05;89.30
80620;BME280;69979;53.682;-2.690;2024-01-25T10:18:55;101632.69;;;5.15;88.24
80620;BME280;69979;53.682;-2.690;2024-01-25T10:21:21;101636.68;;;5.14;88.48
80620;BME280;69979;53.682;-2.690;2024-01-25T10:23:46;101633.73;;;4.80;90.38
80620;BME280;69979;53.682;-2.690;2024-01-25T10:26:11;101632.97;;;5.01;89.66
80620;BME280;69979;53.682;-2.690;2024-01-25T10:28:37;101636.15;;;5.50;86.46
80620;BME280;69979;53.682;-2.690;2024-01-25T10:31:03;101645.23;;;6.05;85.35
80620;BME280;69979;53.682;-2.690;2024-01-25T10:33:29;101648.00;;;5.90;85.15
80620;BME280;69979;53.682;-2.690;2024-01-25T10:35:54;101639.40;;;5.62;85.37
80620;BME280;69979;53.682;-2.690;2024-01-25T10:38:20;101635.47;;;6.26;85.57
80620;BME280;69979;53.682;-2.690;2024-01-25T10:40:46;101630.99;;;5.64;85.62
80620;BME280;69979;53.682;-2.690;2024-01-25T10:43:10;101630.64;;;5.91;85.93
80620;BME280;69979;53.682;-2.690;2024-01-25T10:45:36;101620.90;;;5.76;86.91
80620;BME280;69979;53.682;-2.690;2024-01-25T10:48:01;101612.69;;;6.35;85.01
80620;BME280;69979;53.682;-2.690;2024-01-25T10:50:27;101608.88;;;5.40;87.20
80620;BME280;69979;53.682;-2.690;2024-01-25T10:52:53;101610.70;;;5.68;87.73
80620;BME280;69979;53.682;-2.690;2024-01-25T10:55:19;101610.75;;;5.75;85.98
80620;BME280;69979;53.682;-2.690;2024-01-25T10:57:45;101603.03;;;5.57;86.89
80620;BME280;69979;53.682;-2.690;2024-01-25T11:00:11;101605.67;;;5.40;87.29
80620;BME280;69979;53.682;-2.690;2024-01-25T11:02:35;101599.91;;;5.43;87.90
80620;BME280;69979;53.682;-2.690;2024-01-25T11:05:01;101596.54;;;5.48;87.16
80620;BME280;69979;53.682;-2.690;2024-01-25T11:07:26;101597.73;;;5.54;86.30
80620;BME280;69979;53.682;-2.690;2024-01-25T11:09:53;101594.00;;;5.77;86.04
80620;BME280;69979;53.682;-2.690;2024-01-25T11:12:19;101585.67;;;5.81;85.29
80620;BME280;69979;53.682;-2.690;2024-01-25T11:14:43;101585.80;;;5.86;85.57
80620;BME280;69979;53.682;-2.690;2024-01-25T11:17:15;101585.45;;;6.29;83.95
80620;BME280;69979;53.682;-2.690;2024-01-25T11:19:34;101582.38;;;6.17;83.97
80620;BME280;69979;53.682;-2.690;2024-01-25T11:22:03;101574.92;;;6.47;83.04
80620;BME280;69979;53.682;-2.690;2024-01-25T11:24:26;101564.94;;;5.28;86.76
80620;BME280;69979;53.682;-2.690;2024-01-25T11:26:53;101552.91;;;4.88;89.20
80620;BME280;69979;53.682;-2.690;2024-01-25T11:29:17;101552.21;;;5.14;88.65
80620;BME280;69979;53.682;-2.690;2024-01-25T11:31:42;101560.07;;;5.78;88.25
80620;BME280;69979;53.682;-2.690;2024-01-25T11:34:11;101558.10;;;5.57;88.03
80620;BME280;69979;53.682;-2.690;2024-01-25T11:36:33;101557.35;;;5.96;86.92
80620;BME280;69979;53.682;-2.690;2024-01-25T11:38:59;101559.84;;;5.87;86.70
80620;BME280;69979;53.682;-2.690;2024-01-25T11:41:24;101552.93;;;5.80;87.28
80620;BME280;69979;53.682;-2.690;2024-01-25T11:43:50;101551.58;;;5.94;85.74
80620;BME280;69979;53.682;-2.690;2024-01-25T11:46:15;101543.57;;;6.82;83.67
80620;BME280;69979;53.682;-2.690;2024-01-25T11:48:41;101541.72;;;7.03;82.62
80620;BME280;69979;53.682;-2.690;2024-01-25T11:51:08;101542.54;;;6.18;84.46
80620;BME280;69979;53.682;-2.690;2024-01-25T11:53:32;101542.06;;;6.03;86.13
80620;BME280;69979;53.682;-2.690;2024-01-25T11:55:58;101542.57;;;5.71;87.23
80620;BME280;69979;53.682;-2.690;2024-01-25T11:58:23;101539.78;;;5.43;87.91
80620;BME280;69979;53.682;-2.690;2024-01-25T12:00:49;101542.64;;;6.16;86.02
80620;BME280;69979;53.682;-2.690;2024-01-25T12:03:14;101518.44;;;6.62;84.58
80620;BME280;69979;53.682;-2.690;2024-01-25T12:05:40;101524.07;;;5.96;86.78
80620;BME280;69979;53.682;-2.690;2024-01-25T12:08:09;101518.09;;;6.11;86.68
80620;BME280;69979;53.682;-2.690;2024-01-25T12:10:31;101515.52;;;6.95;83.73
80620;BME280;69979;53.682;-2.690;2024-01-25T12:12:56;101513.95;;;6.34;84.36
80620;BME280;69979;53.682;-2.690;2024-01-25T12:15:22;101506.57;;;6.49;84.30
80620;BME280;69979;53.682;-2.690;2024-01-25T12:17:48;101498.80;;;6.71;84.39
80620;BME280;69979;53.682;-2.690;2024-01-25T12:20:13;101488.24;;;6.80;82.88
80620;BME280;69979;53.682;-2.690;2024-01-25T12:22:39;101484.21;;;7.06;83.02
80620;BME280;69979;53.682;-2.690;2024-01-25T12:25:07;101480.92;;;7.05;83.17
80620;BME280;69979;53.682;-2.690;2024-01-25T12:27:30;101474.86;;;6.72;83.28
80620;BME280;69979;53.682;-2.690;2024-01-25T12:29:55;101473.13;;;6.84;83.05
80620;BME280;69979;53.682;-2.690;2024-01-25T12:32:21;101469.47;;;6.31;84.83
80620;BME280;69979;53.682;-2.690;2024-01-25T12:34:53;101466.05;;;7.28;81.77
80620;BME280;69979;53.682;-2.690;2024-01-25T12:37:12;101455.39;;;7.29;82.08
80620;BME280;69979;53.682;-2.690;2024-01-25T12:39:38;101451.83;;;6.89;82.76